sensor_id;sensor_type;location;lat;lon;timestamp;pressure;altitude;pressure_sealevel;temperature
49841;BMP280;35738;49.890;5.930;2023-09-18T00:00:17;95146.19;;;22.70
49841;BMP280;35738;49.890;5.930;2023-09-18T00:02:44;95154.50;;;22.78
49841;BMP280;35738;49.890;5.930;2023-09-18T00:05:10;95158.56;;;22.73
49841;BMP280;35738;49.890;5.930;2023-09-18T00:07:37;95157.69;;;22.56
49841;BMP280;35738;49.890;5.930;2023-09-18T00:10:04;95146.97;;;22.78
49841;BMP280;35738;49.890;5.930;2023-09-18T00:12:31;95134.13;;;23.01
49841;BMP280;35738;49.890;5.930;2023-09-18T00:14:57;95139.25;;;22.63
49841;BMP280;35738;49.890;5.930;2023-09-18T00:17:25;95132.22;;;22.48
49841;BMP280;35738;49.890;5.930;2023-09-18T00:19:51;95118.88;;;22.82
49841;BMP280;35738;49.890;5.930;2023-09-18T00:22:18;95129.16;;;22.85
49841;BMP280;35738;49.890;5.930;2023-09-18T00:24:44;95129.22;;;22.89
49841;BMP280;35738;49.890;5.930;2023-09-18T00:27:11;95136.84;;;22.97
49841;BMP280;35738;49.890;5.930;2023-09-18T00:29:37;95151.47;;;23.19
49841;BMP280;35738;49.890;5.930;2023-09-18T00:32:04;95151.31;;;23.03
49841;BMP280;35738;49.890;5.930;2023-09-18T00:34:31;95171.41;;;23.24
49841;BMP280;35738;49.890;5.930;2023-09-18T00:36:58;95187.28;;;23.37
49841;BMP280;35738;49.890;5.930;2023-09-18T00:39:29;95211.97;;;22.66
49841;BMP280;35738;49.890;5.930;2023-09-18T00:41:55;95234.19;;;22.30
49841;BMP280;35738;49.890;5.930;2023-09-18T00:44:21;95236.47;;;21.98
49841;BMP280;35738;49.890;5.930;2023-09-18T00:46:49;95244.72;;;22.00
49841;BMP280;35738;49.890;5.930;2023-09-18T00:49:17;95241.47;;;21.68
49841;BMP280;35738;49.890;5.930;2023-09-18T00:51:45;95226.41;;;20.89
49841;BMP280;35738;49.890;5.930;2023-09-18T00:54:15;95221.97;;;20.72
49841;BMP280;35738;49.890;5.930;2023-09-18T00:56:42;95209.22;;;21.23
49841;BMP280;35738;49.890;5.930;2023-09-18T00:59:10;95190.56;;;20.75
49841;BMP280;35738;49.890;5.930;2023-09-18T01:01:38;95192.31;;;21.78
49841;BMP280;35738;49.890;5.930;2023-09-18T01:04:05;95184.09;;;22.28
49841;BMP280;35738;49.890;5.930;2023-09-18T01:06:31;95134.94;;;21.90
49841;BMP280;35738;49.890;5.930;2023-09-18T01:08:59;95100.16;;;21.51
49841;BMP280;35738;49.890;5.930;2023-09-18T01:11:33;95109.81;;;22.69
49841;BMP280;35738;49.890;5.930;2023-09-18T01:14:17;95114.81;;;21.71
49841;BMP280;35738;49.890;5.930;2023-09-18T01:16:53;95112.13;;;22.27
49841;BMP280;35738;49.890;5.930;2023-09-18T01:22:06;95094.78;;;22.74
49841;BMP280;35738;49.890;5.930;2023-09-18T01:24:33;95114.38;;;21.89
49841;BMP280;35738;49.890;5.930;2023-09-18T01:27:00;95109.69;;;21.48
49841;BMP280;35738;49.890;5.930;2023-09-18T01:29:27;95120.13;;;21.16
49841;BMP280;35738;49.890;5.930;2023-09-18T01:31:54;95112.94;;;20.55
49841;BMP280;35738;49.890;5.930;2023-09-18T01:34:31;95103.56;;;21.49
49841;BMP280;35738;49.890;5.930;2023-09-18T01:37:00;95083.19;;;21.15
49841;BMP280;35738;49.890;5.930;2023-09-18T01:39:27;95087.06;;;21.45
49841;BMP280;35738;49.890;5.930;2023-09-18T01:42:01;95081.91;;;21.22
49841;BMP280;35738;49.890;5.930;2023-09-18T01:44:29;95088.97;;;20.55
49841;BMP280;35738;49.890;5.930;2023-09-18T01:47:00;95081.78;;;20.34
49841;BMP280;35738;49.890;5.930;2023-09-18T01:49:37;95091.44;;;20.77
49841;BMP280;35738;49.890;5.930;2023-09-18T01:52:05;95090.28;;;20.15
49841;BMP280;35738;49.890;5.930;2023-09-18T01:54:33;95094.16;;;21.17
49841;BMP280;35738;49.890;5.930;2023-09-18T01:57:01;95092.72;;;20.72
49841;BMP280;35738;49.890;5.930;2023-09-18T01:59:27;95089.06;;;20.59
49841;BMP280;35738;49.890;5.930;2023-09-18T02:01:54;95096.44;;;19.52
49841;BMP280;35738;49.890;5.930;2023-09-18T02:04:22;95094.16;;;20.04
49841;BMP280;35738;49.890;5.930;2023-09-18T02:07:09;95114.16;;;21.27
49841;BMP280;35738;49.890;5.930;2023-09-18T02:09:36;95114.69;;;22.13
49841;BMP280;35738;49.890;5.930;2023-09-18T02:12:02;95111.84;;;21.55
49841;BMP280;35738;49.890;5.930;2023-09-18T02:14:29;95121.94;;;21.43
49841;BMP280;35738;49.890;5.930;2023-09-18T02:16:57;95131.06;;;21.14
49841;BMP280;35738;49.890;5.930;2023-09-18T02:19:24;95123.94;;;21.84
49841;BMP280;35738;49.890;5.930;2023-09-18T02:21:50;95136.22;;;22.37
49841;BMP280;35738;49.890;5.930;2023-09-18T02:24:17;95133.59;;;22.47
49841;BMP280;35738;49.890;5.930;2023-09-18T02:26:44;95116.16;;;22.20
49841;BMP280;35738;49.890;5.930;2023-09-18T02:29:11;95113.47;;;22.24
49841;BMP280;35738;49.890;5.930;2023-09-18T02:31:40;95109.66;;;21.93
49841;BMP280;35738;49.890;5.930;2023-09-18T02:34:06;95125.91;;;22.35
49841;BMP280;35738;49.890;5.930;2023-09-18T02:36:35;95123.84;;;21.32
49841;BMP280;35738;49.890;5.930;2023-09-18T02:39:02;95122.06;;;21.07
49841;BMP280;35738;49.890;5.930;2023-09-18T02:41:29;95107.13;;;21.60
49841;BMP280;35738;49.890;5.930;2023-09-18T02:43:56;95109.50;;;21.81
49841;BMP280;35738;49.890;5.930;2023-09-18T02:46:23;95111.22;;;21.59
49841;BMP280;35738;49.890;5.930;2023-09-18T02:48:49;95113.34;;;21.19
49841;BMP280;35738;49.890;5.930;2023-09-18T02:51:16;95115.91;;;21.52
49841;BMP280;35738;49.890;5.930;2023-09-18T02:53:43;95120.94;;;21.22
49841;BMP280;35738;49.890;5.930;2023-09-18T02:56:09;95117.22;;;21.47
49841;BMP280;35738;49.890;5.930;2023-09-18T02:58:36;95107.91;;;21.21
49841;BMP280;35738;49.890;5.930;2023-09-18T03:01:02;95080.41;;;21.13
49841;BMP280;35738;49.890;5.930;2023-09-18T03:03:30;95084.53;;;21.61
49841;BMP280;35738;49.890;5.930;2023-09-18T03:06:04;95095.09;;;21.33
49841;BMP280;35738;49.890;5.930;2023-09-18T03:08:31;95096.69;;;21.46
49841;BMP280;35738;49.890;5.930;2023-09-18T03:10:57;95097.78;;;20.87
49841;BMP280;35738;49.890;5.930;2023-09-18T03:13:26;95098.22;;;21.14
49841;BMP280;35738;49.890;5.930;2023-09-18T03:15:53;95095.72;;;21.28
49841;BMP280;35738;49.890;5.930;2023-09-18T03:18:19;95086.16;;;21.31
49841;BMP280;35738;49.890;5.930;2023-09-18T03:20:45;95088.91;;;20.87
49841;BMP280;35738;49.890;5.930;2023-09-18T03:23:12;95074.00;;;20.98
49841;BMP280;35738;49.890;5.930;2023-09-18T03:25:38;95064.69;;;21.61
49841;BMP280;35738;49.890;5.930;2023-09-18T03:28:17;95067.53;;;21.19
49841;BMP280;35738;49.890;5.930;2023-09-18T03:30:44;95076.31;;;21.59
49841;BMP280;35738;49.890;5.930;2023-09-18T03:33:10;95084.78;;;21.30
49841;BMP280;35738;49.890;5.930;2023-09-18T03:35:51;95074.28;;;21.60
49841;BMP280;35738;49.890;5.930;2023-09-18T03:38:17;95068.22;;;21.22
49841;BMP280;35738;49.890;5.930;2023-09-18T03:40:44;95062.25;;;20.52
49841;BMP280;35738;49.890;5.930;2023-09-18T03:43:11;95074.22;;;21.10
49841;BMP280;35738;49.890;5.930;2023-09-18T03:45:39;95052.97;;;20.67
49841;BMP280;35738;49.890;5.930;2023-09-18T03:48:08;95053.63;;;20.65
49841;BMP280;35738;49.890;5.930;2023-09-18T03:50:35;95046.91;;;21.16
49841;BMP280;35738;49.890;5.930;2023-09-18T03:53:02;95044.53;;;20.94
49841;BMP280;35738;49.890;5.930;2023-09-18T03:55:29;95046.28;;;20.36
49841;BMP280;35738;49.890;5.930;2023-09-18T03:57:56;95027.16;;;20.76
49841;BMP280;35738;49.890;5.930;2023-09-18T04:00:22;95018.53;;;20.93
49841;BMP280;35738;49.890;5.930;2023-09-18T04:02:49;95037.44;;;20.77
49841;BMP280;35738;49.890;5.930;2023-09-18T04:05:16;95029.59;;;20.60
49841;BMP280;35738;49.890;5.930;2023-09-18T04:07:43;95042.47;;;20.93
49841;BMP280;35738;49.890;5.930;2023-09-18T04:10:14;95005.06;;;20.26
49841;BMP280;35738;49.890;5.930;2023-09-18T04:12:51;95009.56;;;20.87
49841;BMP280;35738;49.890;5.930;2023-09-18T04:15:18;95016.41;;;20.48
49841;BMP280;35738;49.890;5.930;2023-09-18T04:17:45;95024.59;;;20.46
49841;BMP280;35738;49.890;5.930;2023-09-18T04:20:12;95015.88;;;20.18
49841;BMP280;35738;49.890;5.930;2023-09-18T04:22:46;95011.16;;;20.60
49841;BMP280;35738;49.890;5.930;2023-09-18T04:25:16;95020.09;;;20.25
49841;BMP280;35738;49.890;5.930;2023-09-18T04:27:43;95038.84;;;20.05
49841;BMP280;35738;49.890;5.930;2023-09-18T04:30:09;95038.97;;;20.49
49841;BMP280;35738;49.890;5.930;2023-09-18T04:32:37;95028.75;;;19.78
49841;BMP280;35738;49.890;5.930;2023-09-18T04:35:04;95031.22;;;20.00
49841;BMP280;35738;49.890;5.930;2023-09-18T04:37:36;95026.53;;;20.04
49841;BMP280;35738;49.890;5.930;2023-09-18T04:40:05;95043.63;;;20.05
49841;BMP280;35738;49.890;5.930;2023-09-18T04:42:35;95059.53;;;20.16
49841;BMP280;35738;49.890;5.930;2023-09-18T04:45:03;95065.59;;;19.79
49841;BMP280;35738;49.890;5.930;2023-09-18T04:47:29;95083.03;;;19.62
49841;BMP280;35738;49.890;5.930;2023-09-18T04:49:56;95081.31;;;19.49
49841;BMP280;35738;49.890;5.930;2023-09-18T04:52:22;95076.03;;;19.55
49841;BMP280;35738;49.890;5.930;2023-09-18T04:54:49;95061.66;;;19.86
49841;BMP280;35738;49.890;5.930;2023-09-18T04:57:15;95050.41;;;19.70
49841;BMP280;35738;49.890;5.930;2023-09-18T04:59:44;95053.97;;;19.76
49841;BMP280;35738;49.890;5.930;2023-09-18T05:02:11;95053.81;;;20.02
49841;BMP280;35738;49.890;5.930;2023-09-18T05:04:37;95044.66;;;19.90
49841;BMP280;35738;49.890;5.930;2023-09-18T05:07:04;95061.53;;;19.48
49841;BMP280;35738;49.890;5.930;2023-09-18T05:09:31;95069.44;;;19.98
49841;BMP280;35738;49.890;5.930;2023-09-18T05:11:58;95081.31;;;19.49
49841;BMP280;35738;49.890;5.930;2023-09-18T05:14:25;95062.00;;;20.02
49841;BMP280;35738;49.890;5.930;2023-09-18T05:16:51;95060.41;;;19.91
49841;BMP280;35738;49.890;5.930;2023-09-18T05:19:18;95064.06;;;20.37
49841;BMP280;35738;49.890;5.930;2023-09-18T05:21:44;95062.06;;;19.72
49841;BMP280;35738;49.890;5.930;2023-09-18T05:24:10;95063.31;;;19.99
49841;BMP280;35738;49.890;5.930;2023-09-18T05:26:37;95061.56;;;20.16
49841;BMP280;35738;49.890;5.930;2023-09-18T05:29:03;95081.22;;;20.06
49841;BMP280;35738;49.890;5.930;2023-09-18T05:31:30;95069.72;;;19.78
49841;BMP280;35738;49.890;5.930;2023-09-18T05:33:56;95057.06;;;20.28
49841;BMP280;35738;49.890;5.930;2023-09-18T05:36:23;95047.41;;;19.90
49841;BMP280;35738;49.890;5.930;2023-09-18T05:38:50;95055.88;;;20.39
49841;BMP280;35738;49.890;5.930;2023-09-18T05:41:17;95061.72;;;20.59
49841;BMP280;35738;49.890;5.930;2023-09-18T05:43:44;95062.97;;;20.92
49841;BMP280;35738;49.890;5.930;2023-09-18T05:46:10;95061.94;;;21.13
49841;BMP280;35738;49.890;5.930;2023-09-18T05:48:36;95060.53;;;20.31
49841;BMP280;35738;49.890;5.930;2023-09-18T05:51:03;95065.69;;;20.90
49841;BMP280;35738;49.890;5.930;2023-09-18T05:53:30;95062.16;;;20.83
49841;BMP280;35738;49.890;5.930;2023-09-18T05:55:57;95063.34;;;21.16
49841;BMP280;35738;49.890;5.930;2023-09-18T05:58:31;95058.88;;;20.53
49841;BMP280;35738;49.890;5.930;2023-09-18T06:00:59;95063.44;;;20.41
49841;BMP280;35738;49.890;5.930;2023-09-18T06:03:27;95069.50;;;20.73
49841;BMP280;35738;49.890;5.930;2023-09-18T06:05:56;95071.28;;;20.23
49841;BMP280;35738;49.890;5.930;2023-09-18T06:08:23;95073.53;;;19.67
49841;BMP280;35738;49.890;5.930;2023-09-18T06:10:52;95060.38;;;21.02
49841;BMP280;35738;49.890;5.930;2023-09-18T06:13:18;95072.31;;;20.79
49841;BMP280;35738;49.890;5.930;2023-09-18T06:15:45;95070.78;;;20.70
49841;BMP280;35738;49.890;5.930;2023-09-18T06:18:11;95065.06;;;21.39
49841;BMP280;35738;49.890;5.930;2023-09-18T06:20:38;95077.56;;;21.52
49841;BMP280;35738;49.890;5.930;2023-09-18T06:23:07;95075.31;;;20.95
49841;BMP280;35738;49.890;5.930;2023-09-18T06:25:34;95088.59;;;21.13
49841;BMP280;35738;49.890;5.930;2023-09-18T06:28:00;95086.84;;;21.79
49841;BMP280;35738;49.890;5.930;2023-09-18T06:30:29;95088.69;;;21.17
49841;BMP280;35738;49.890;5.930;2023-09-18T06:32:57;95082.75;;;21.32
49841;BMP280;35738;49.890;5.930;2023-09-18T06:35:24;95101.22;;;20.88
49841;BMP280;35738;49.890;5.930;2023-09-18T06:37:50;95102.75;;;21.41
49841;BMP280;35738;49.890;5.930;2023-09-18T06:40:17;95101.22;;;20.52
49841;BMP280;35738;49.890;5.930;2023-09-18T06:42:44;95106.88;;;20.60
49841;BMP280;35738;49.890;5.930;2023-09-18T06:45:10;95094.44;;;20.55
49841;BMP280;35738;49.890;5.930;2023-09-18T06:47:37;95110.75;;;20.47
49841;BMP280;35738;49.890;5.930;2023-09-18T06:50:07;95102.50;;;21.25
49841;BMP280;35738;49.890;5.930;2023-09-18T06:52:33;95101.88;;;20.86
49841;BMP280;35738;49.890;5.930;2023-09-18T06:55:00;95108.94;;;20.26
49841;BMP280;35738;49.890;5.930;2023-09-18T06:57:26;95119.28;;;20.30
49841;BMP280;35738;49.890;5.930;2023-09-18T06:59:53;95118.25;;;20.47
49841;BMP280;35738;49.890;5.930;2023-09-18T07:02:20;95128.34;;;20.76
49841;BMP280;35738;49.890;5.930;2023-09-18T07:04:46;95135.78;;;20.36
49841;BMP280;35738;49.890;5.930;2023-09-18T07:07:13;95130.00;;;21.33
49841;BMP280;35738;49.890;5.930;2023-09-18T07:09:41;95134.84;;;20.59
49841;BMP280;35738;49.890;5.930;2023-09-18T07:12:27;95122.75;;;20.68
49841;BMP280;35738;49.890;5.930;2023-09-18T07:14:55;95128.69;;;20.94
49841;BMP280;35738;49.890;5.930;2023-09-18T07:17:21;95118.53;;;20.27
49841;BMP280;35738;49.890;5.930;2023-09-18T07:19:48;95137.31;;;20.80
49841;BMP280;35738;49.890;5.930;2023-09-18T07:22:14;95137.31;;;20.80
49841;BMP280;35738;49.890;5.930;2023-09-18T07:24:41;95147.56;;;21.18
49841;BMP280;35738;49.890;5.930;2023-09-18T07:27:09;95146.81;;;20.75
49841;BMP280;35738;49.890;5.930;2023-09-18T07:29:35;95141.38;;;20.08
49841;BMP280;35738;49.890;5.930;2023-09-18T07:32:02;95157.66;;;20.36
49841;BMP280;35738;49.890;5.930;2023-09-18T07:34:29;95147.41;;;20.72
49841;BMP280;35738;49.890;5.930;2023-09-18T07:36:55;95146.91;;;20.44
49841;BMP280;35738;49.890;5.930;2023-09-18T07:39:22;95143.16;;;21.01
49841;BMP280;35738;49.890;5.930;2023-09-18T07:41:49;95153.69;;;20.76
49841;BMP280;35738;49.890;5.930;2023-09-18T07:44:22;95151.41;;;20.31
49841;BMP280;35738;49.890;5.930;2023-09-18T07:46:48;95148.41;;;20.53
49841;BMP280;35738;49.890;5.930;2023-09-18T07:49:14;95156.69;;;20.21
49841;BMP280;35738;49.890;5.930;2023-09-18T07:51:43;95162.78;;;20.53
49841;BMP280;35738;49.890;5.930;2023-09-18T07:54:14;95155.72;;;20.40
49841;BMP280;35738;49.890;5.930;2023-09-18T07:56:42;95168.25;;;20.53
49841;BMP280;35738;49.890;5.930;2023-09-18T07:59:09;95168.84;;;21.21
49841;BMP280;35738;49.890;5.930;2023-09-18T08:01:36;95168.69;;;20.75
49841;BMP280;35738;49.890;5.930;2023-09-18T08:04:03;95186.81;;;20.94
49841;BMP280;35738;49.890;5.930;2023-09-18T08:06:30;95182.03;;;21.35
49841;BMP280;35738;49.890;5.930;2023-09-18T08:08:56;95183.00;;;21.51
49841;BMP280;35738;49.890;5.930;2023-09-18T08:11:22;95167.13;;;21.89
49841;BMP280;35738;49.890;5.930;2023-09-18T08:13:49;95171.56;;;21.63
49841;BMP280;35738;49.890;5.930;2023-09-18T08:16:15;95180.22;;;21.93
49841;BMP280;35738;49.890;5.930;2023-09-18T08:18:43;95178.56;;;21.74
49841;BMP280;35738;49.890;5.930;2023-09-18T08:21:11;95180.41;;;21.18
49841;BMP280;35738;49.890;5.930;2023-09-18T08:23:40;95175.00;;;20.84
49841;BMP280;35738;49.890;5.930;2023-09-18T08:26:06;95164.94;;;20.94
49841;BMP280;35738;49.890;5.930;2023-09-18T08:28:33;95173.81;;;20.95
49841;BMP280;35738;49.890;5.930;2023-09-18T08:31:02;95173.09;;;20.90
49841;BMP280;35738;49.890;5.930;2023-09-18T08:33:29;95176.59;;;21.37
49841;BMP280;35738;49.890;5.930;2023-09-18T08:35:55;95181.66;;;20.73
49841;BMP280;35738;49.890;5.930;2023-09-18T08:38:22;95196.78;;;20.78
49841;BMP280;35738;49.890;5.930;2023-09-18T08:40:48;95196.00;;;20.73
49841;BMP280;35738;49.890;5.930;2023-09-18T08:43:15;95199.56;;;20.80
49841;BMP280;35738;49.890;5.930;2023-09-18T08:48:09;95215.06;;;21.05
49841;BMP280;35738;49.890;5.930;2023-09-18T08:50:36;95223.44;;;20.77
49841;BMP280;35738;49.890;5.930;2023-09-18T08:53:04;95222.16;;;21.18
49841;BMP280;35738;49.890;5.930;2023-09-18T08:55:33;95228.19;;;21.13
49841;BMP280;35738;49.890;5.930;2023-09-18T08:58:00;95237.34;;;20.89
49841;BMP280;35738;49.890;5.930;2023-09-18T09:00:27;95229.69;;;21.57
49841;BMP280;35738;49.890;5.930;2023-09-18T09:02:53;95226.50;;;21.75
49841;BMP280;35738;49.890;5.930;2023-09-18T09:05:21;95230.66;;;20.98
49841;BMP280;35738;49.890;5.930;2023-09-18T09:07:49;95239.00;;;21.84
49841;BMP280;35738;49.890;5.930;2023-09-18T09:10:17;95230.38;;;21.58
49841;BMP280;35738;49.890;5.930;2023-09-18T09:12:48;95230.09;;;21.42
49841;BMP280;35738;49.890;5.930;2023-09-18T09:15:17;95234.47;;;21.59
49841;BMP280;35738;49.890;5.930;2023-09-18T09:17:44;95227.78;;;21.28
49841;BMP280;35738;49.890;5.930;2023-09-18T09:20:12;95226.72;;;21.87
49841;BMP280;35738;49.890;5.930;2023-09-18T09:22:40;95217.78;;;21.43
49841;BMP280;35738;49.890;5.930;2023-09-18T09:25:23;95217.41;;;21.62
49841;BMP280;35738;49.890;5.930;2023-09-18T09:27:55;95224.38;;;20.92
49841;BMP280;35738;49.890;5.930;2023-09-18T09:30:24;95213.19;;;21.14
49841;BMP280;35738;49.890;5.930;2023-09-18T09:32:52;95216.16;;;21.67
49841;BMP280;35738;49.890;5.930;2023-09-18T09:35:29;95210.91;;;21.83
49841;BMP280;35738;49.890;5.930;2023-09-18T09:37:58;95206.91;;;21.92
49841;BMP280;35738;49.890;5.930;2023-09-18T09:40:29;95207.38;;;22.25
49841;BMP280;35738;49.890;5.930;2023-09-18T09:42:57;95191.50;;;21.69
49841;BMP280;35738;49.890;5.930;2023-09-18T09:45:31;95199.25;;;21.83
49841;BMP280;35738;49.890;5.930;2023-09-18T09:48:05;95203.47;;;22.42
49841;BMP280;35738;49.890;5.930;2023-09-18T09:50:35;95199.69;;;22.71
49841;BMP280;35738;49.890;5.930;2023-09-18T09:53:11;95201.75;;;22.14
49841;BMP280;35738;49.890;5.930;2023-09-18T09:55:38;95202.00;;;21.85
49841;BMP280;35738;49.890;5.930;2023-09-18T09:58:07;95206.56;;;22.16
49841;BMP280;35738;49.890;5.930;2023-09-18T10:00:43;95212.00;;;21.66
49841;BMP280;35738;49.890;5.930;2023-09-18T10:03:13;95212.09;;;21.31
49841;BMP280;35738;49.890;5.930;2023-09-18T10:05:44;95226.25;;;21.59
49841;BMP280;35738;49.890;5.930;2023-09-18T10:08:21;95227.72;;;22.09
49841;BMP280;35738;49.890;5.930;2023-09-18T10:10:52;95227.78;;;22.15
49841;BMP280;35738;49.890;5.930;2023-09-18T10:16:05;95228.19;;;23.05
49841;BMP280;35738;49.890;5.930;2023-09-18T10:21:53;95215.28;;;22.52
49841;BMP280;35738;49.890;5.930;2023-09-18T10:24:28;95221.72;;;22.75
49841;BMP280;35738;49.890;5.930;2023-09-18T10:26:59;95225.53;;;22.52
49841;BMP280;35738;49.890;5.930;2023-09-18T10:29:28;95225.63;;;21.60
49841;BMP280;35738;49.890;5.930;2023-09-18T10:31:56;95229.06;;;22.06
49841;BMP280;35738;49.890;5.930;2023-09-18T10:34:24;95228.84;;;22.40
49841;BMP280;35738;49.890;5.930;2023-09-18T10:36:52;95222.06;;;22.47
49841;BMP280;35738;49.890;5.930;2023-09-18T10:39:20;95221.94;;;21.87
49841;BMP280;35738;49.890;5.930;2023-09-18T10:41:52;95209.94;;;22.10
49841;BMP280;35738;49.890;5.930;2023-09-18T10:44:20;95200.03;;;22.41
49841;BMP280;35738;49.890;5.930;2023-09-18T10:46:48;95212.38;;;22.40
49841;BMP280;35738;49.890;5.930;2023-09-18T10:49:21;95195.75;;;22.28
49841;BMP280;35738;49.890;5.930;2023-09-18T10:51:48;95214.22;;;22.81
49841;BMP280;35738;49.890;5.930;2023-09-18T10:54:16;95211.41;;;22.17
49841;BMP280;35738;49.890;5.930;2023-09-18T10:56:43;95215.56;;;22.78
49841;BMP280;35738;49.890;5.930;2023-09-18T10:59:10;95224.63;;;22.91
49841;BMP280;35738;49.890;5.930;2023-09-18T11:01:37;95210.19;;;22.88
49841;BMP280;35738;49.890;5.930;2023-09-18T11:04:05;95208.78;;;22.85
49841;BMP280;35738;49.890;5.930;2023-09-18T11:09:24;95197.50;;;22.57
49841;BMP280;35738;49.890;5.930;2023-09-18T11:12:02;95204.69;;;22.86
49841;BMP280;35738;49.890;5.930;2023-09-18T11:17:29;95214.13;;;23.47
49841;BMP280;35738;49.890;5.930;2023-09-18T11:22:49;95222.84;;;24.03
49841;BMP280;35738;49.890;5.930;2023-09-18T11:28:16;95204.63;;;25.08
49841;BMP280;35738;49.890;5.930;2023-09-18T11:30:55;95215.47;;;24.46
49841;BMP280;35738;49.890;5.930;2023-09-18T11:33:41;76872.31;;;-146.59
49841;BMP280;35738;49.890;5.930;2023-09-18T11:36:28;76872.31;;;-146.59
49841;BMP280;35738;49.890;5.930;2023-09-18T11:38:58;76872.31;;;-146.59
49841;BMP280;35738;49.890;5.930;2023-09-18T11:41:33;76872.31;;;-146.59
49841;BMP280;35738;49.890;5.930;2023-09-18T11:46:48;76872.31;;;-146.59
49841;BMP280;35738;49.890;5.930;2023-09-18T11:49:20;76872.31;;;-146.59
49841;BMP280;35738;49.890;5.930;2023-09-18T11:51:54;76872.31;;;-146.59
49841;BMP280;35738;49.890;5.930;2023-09-18T11:54:20;76872.31;;;-146.59
49841;BMP280;35738;49.890;5.930;2023-09-18T11:56:47;76872.31;;;-146.59
49841;BMP280;35738;49.890;5.930;2023-09-18T11:59:14;76872.31;;;-146.59
49841;BMP280;35738;49.890;5.930;2023-09-18T12:01:40;76872.31;;;-146.59
49841;BMP280;35738;49.890;5.930;2023-09-18T12:04:07;76872.31;;;-146.59
49841;BMP280;35738;49.890;5.930;2023-09-18T12:06:35;76872.31;;;-146.59
49841;BMP280;35738;49.890;5.930;2023-09-18T12:09:05;76872.31;;;-146.59
49841;BMP280;35738;49.890;5.930;2023-09-18T12:11:35;76872.31;;;-146.59
49841;BMP280;35738;49.890;5.930;2023-09-18T12:14:03;76872.31;;;-146.59
49841;BMP280;35738;49.890;5.930;2023-09-18T12:16:36;76872.31;;;-146.59
49841;BMP280;35738;49.890;5.930;2023-09-18T12:19:05;76872.31;;;-146.59
49841;BMP280;35738;49.890;5.930;2023-09-18T12:21:41;76872.31;;;-146.59
49841;BMP280;35738;49.890;5.930;2023-09-18T12:24:20;76872.31;;;-146.59
49841;BMP280;35738;49.890;5.930;2023-09-18T12:26:47;76872.31;;;-146.59
49841;BMP280;35738;49.890;5.930;2023-09-18T12:29:14;76872.31;;;-146.59
49841;BMP280;35738;49.890;5.930;2023-09-18T12:31:41;76872.31;;;-146.59
49841;BMP280;35738;49.890;5.930;2023-09-18T12:34:18;76872.31;;;-146.59
49841;BMP280;35738;49.890;5.930;2023-09-18T12:36:47;76872.31;;;-146.59
49841;BMP280;35738;49.890;5.930;2023-09-18T12:39:14;76872.31;;;-146.59
49841;BMP280;35738;49.890;5.930;2023-09-18T12:41:46;76872.31;;;-146.59
49841;BMP280;35738;49.890;5.930;2023-09-18T12:44:13;76872.31;;;-146.59
49841;BMP280;35738;49.890;5.930;2023-09-18T12:46:43;76872.31;;;-146.59
49841;BMP280;35738;49.890;5.930;2023-09-18T12:49:18;76872.31;;;-146.59
49841;BMP280;35738;49.890;5.930;2023-09-18T12:52:02;76872.31;;;-146.59
49841;BMP280;35738;49.890;5.930;2023-09-18T12:54:42;76872.31;;;-146.59
49841;BMP280;35738;49.890;5.930;2023-09-18T12:57:09;76872.31;;;-146.59
49841;BMP280;35738;49.890;5.930;2023-09-18T12:59:37;76872.31;;;-146.59
49841;BMP280;35738;49.890;5.930;2023-09-18T13:02:05;76872.31;;;-146.59
49841;BMP280;35738;49.890;5.930;2023-09-18T13:04:33;76872.31;;;-146.59
49841;BMP280;35738;49.890;5.930;2023-09-18T13:07:14;76872.31;;;-146.59
49841;BMP280;35738;49.890;5.930;2023-09-18T13:09:41;76872.31;;;-146.59
49841;BMP280;35738;49.890;5.930;2023-09-18T13:12:08;76872.31;;;-146.59
49841;BMP280;35738;49.890;5.930;2023-09-18T13:14:57;76872.31;;;-146.59
49841;BMP280;35738;49.890;5.930;2023-09-18T13:17:25;76872.31;;;-146.59
49841;BMP280;35738;49.890;5.930;2023-09-18T13:19:53;76872.31;;;-146.59
49841;BMP280;35738;49.890;5.930;2023-09-18T13:22:25;76872.31;;;-146.59
49841;BMP280;35738;49.890;5.930;2023-09-18T13:24:56;76872.31;;;-146.59
49841;BMP280;35738;49.890;5.930;2023-09-18T13:27:23;76872.31;;;-146.59
49841;BMP280;35738;49.890;5.930;2023-09-18T13:29:51;76872.31;;;-146.59
49841;BMP280;35738;49.890;5.930;2023-09-18T13:32:18;76872.31;;;-146.59
49841;BMP280;35738;49.890;5.930;2023-09-18T13:34:44;76872.31;;;-146.59
49841;BMP280;35738;49.890;5.930;2023-09-18T13:37:11;76872.31;;;-146.59
49841;BMP280;35738;49.890;5.930;2023-09-18T13:39:40;76872.31;;;-146.59
49841;BMP280;35738;49.890;5.930;2023-09-18T13:42:07;76872.31;;;-146.59
49841;BMP280;35738;49.890;5.930;2023-09-18T13:44:33;76872.31;;;-146.59
49841;BMP280;35738;49.890;5.930;2023-09-18T13:47:01;76872.31;;;-146.59
49841;BMP280;35738;49.890;5.930;2023-09-18T13:49:29;76872.31;;;-146.59
49841;BMP280;35738;49.890;5.930;2023-09-18T13:51:56;76872.31;;;-146.59
49841;BMP280;35738;49.890;5.930;2023-09-18T13:54:23;76872.31;;;-146.59
49841;BMP280;35738;49.890;5.930;2023-09-18T13:56:49;76872.31;;;-146.59
49841;BMP280;35738;49.890;5.930;2023-09-18T13:59:15;76872.31;;;-146.59
49841;BMP280;35738;49.890;5.930;2023-09-18T14:01:42;76872.31;;;-146.59
49841;BMP280;35738;49.890;5.930;2023-09-18T14:04:08;76872.31;;;-146.59
49841;BMP280;35738;49.890;5.930;2023-09-18T14:06:35;76872.31;;;-146.59
49841;BMP280;35738;49.890;5.930;2023-09-18T14:09:01;76872.31;;;-146.59
49841;BMP280;35738;49.890;5.930;2023-09-18T14:11:31;76872.31;;;-146.59
49841;BMP280;35738;49.890;5.930;2023-09-18T14:13:59;76872.31;;;-146.59
49841;BMP280;35738;49.890;5.930;2023-09-18T14:16:25;76872.31;;;-146.59
49841;BMP280;35738;49.890;5.930;2023-09-18T14:18:52;76872.31;;;-146.59
49841;BMP280;35738;49.890;5.930;2023-09-18T14:21:20;76872.31;;;-146.59
49841;BMP280;35738;49.890;5.930;2023-09-18T14:23:46;76872.31;;;-146.59
49841;BMP280;35738;49.890;5.930;2023-09-18T14:26:13;76872.31;;;-146.59
49841;BMP280;35738;49.890;5.930;2023-09-18T14:28:46;76872.31;;;-146.59
49841;BMP280;35738;49.890;5.930;2023-09-18T14:31:12;76872.31;;;-146.59
49841;BMP280;35738;49.890;5.930;2023-09-18T14:33:39;76872.31;;;-146.59
49841;BMP280;35738;49.890;5.930;2023-09-18T14:36:07;76872.31;;;-146.59